createdAt,value
2018-08-19T00:02:58.924Z,79.80
2018-08-19T00:07:07.067Z,80.00
2018-08-19T00:11:15.205Z,80.00
2018-08-19T00:15:23.324Z,80.40
2018-08-19T00:19:32.844Z,80.80
2018-08-19T00:23:46.389Z,81.40
2018-08-19T00:27:54.510Z,81.30
2018-08-19T00:32:02.616Z,81.50
2018-08-19T00:36:25.012Z,81.90
2018-08-19T00:40:33.224Z,82.30
2018-08-19T00:44:41.803Z,82.70
2018-08-19T00:48:49.923Z,82.80
2018-08-19T00:52:58.056Z,82.60
2018-08-19T00:57:07.896Z,83.10
2018-08-19T01:01:29.076Z,83.30
2018-08-19T01:05:37.219Z,83.60
2018-08-19T01:09:45.353Z,83.90
2018-08-19T01:13:53.488Z,84.00
2018-08-19T01:18:01.631Z,83.80
2018-08-19T01:22:09.786Z,84.10
2018-08-19T01:26:17.912Z,84.90
2018-08-19T01:30:26.544Z,84.60
2018-08-19T01:34:34.687Z,84.90
2018-08-19T01:38:42.844Z,85.00
2018-08-19T01:42:50.984Z,85.10
2018-08-19T01:46:59.773Z,85.20
2018-08-19T01:51:07.927Z,85.70
2018-08-19T01:55:16.084Z,86.00
2018-08-19T01:59:28.244Z,86.50
2018-08-19T02:03:36.388Z,86.60
2018-08-19T02:07:44.550Z,86.60
2018-08-19T02:11:54.144Z,86.60
2018-08-19T02:16:06.616Z,86.40
2018-08-19T02:20:14.083Z,86.60
2018-08-19T02:24:21.563Z,86.90
2018-08-19T02:28:29.707Z,86.80
2018-08-19T02:32:37.856Z,87.20
2018-08-19T02:36:45.311Z,87.40
2018-08-19T02:40:53.078Z,87.40
2018-08-19T02:45:06.271Z,87.40
2018-08-19T02:49:14.420Z,87.50
2018-08-19T02:53:22.556Z,87.40
2018-08-19T02:57:31.559Z,87.30
2018-08-19T03:01:39.705Z,87.70
2018-08-19T03:05:51.144Z,87.80
2018-08-19T03:10:06.214Z,88.20
2018-08-19T03:14:14.376Z,88.30
2018-08-19T03:18:22.528Z,88.30
2018-08-19T03:22:31.127Z,88.50
2018-08-19T03:26:39.279Z,89.20
2018-08-19T03:30:52.948Z,89.40
2018-08-19T03:35:19.163Z,89.40
2018-08-19T03:39:27.288Z,89.40
2018-08-19T03:43:35.432Z,89.40
2018-08-19T03:47:43.576Z,89.40
2018-08-19T03:51:51.752Z,89.30
2018-08-19T03:55:59.911Z,89.50
2018-08-19T04:00:08.091Z,89.70
2018-08-19T04:04:17.008Z,90.00
2018-08-19T04:08:31.779Z,90.10
2018-08-19T04:12:39.949Z,89.80
2018-08-19T04:16:48.111Z,90.00
2018-08-19T04:20:58.436Z,90.00
2018-08-19T04:25:06.578Z,90.10
2018-08-19T04:29:27.085Z,90.00
2018-08-19T04:33:35.246Z,90.10
2018-08-19T04:37:43.416Z,90.40
2018-08-19T04:41:51.585Z,90.30
2018-08-19T04:46:01.984Z,90.20
2018-08-19T04:54:18.081Z,90.00
2018-08-19T04:58:26.249Z,89.50
2018-08-19T05:02:34.463Z,89.30
2018-08-19T05:06:42.596Z,88.70
2018-08-19T05:10:50.752Z,87.10
2018-08-19T05:14:58.929Z,85.40
2018-08-19T05:19:07.131Z,83.80
2018-08-19T05:23:15.291Z,82.90
2018-08-19T05:27:23.461Z,80.40
2018-08-19T05:31:32.385Z,78.90
2018-08-19T05:35:40.540Z,77.10
2018-08-19T05:39:52.966Z,76.10
2018-08-19T05:44:01.144Z,76.50
2018-08-19T05:48:10.912Z,76.60
2018-08-19T05:52:20.995Z,77.00
2018-08-19T05:56:29.148Z,76.80
2018-08-19T06:00:41.127Z,76.90
2018-08-19T06:04:49.479Z,76.80
2018-08-19T06:08:57.632Z,76.40
2018-08-19T06:13:06.671Z,76.00
2018-08-19T06:17:14.840Z,75.80
2018-08-19T06:21:23.109Z,75.30
2018-08-19T06:25:31.263Z,75.00
2018-08-19T06:29:47.744Z,74.50
2018-08-19T06:33:55.998Z,73.60
2018-08-19T06:38:04.136Z,73.00
2018-08-19T06:42:12.664Z,72.20
2018-08-19T06:46:20.821Z,71.30
2018-08-19T06:50:31.920Z,70.60
2018-08-19T06:54:40.168Z,70.10
2018-08-19T06:58:48.331Z,69.70
2018-08-19T07:02:58.332Z,69.10
2018-08-19T07:07:07.164Z,68.30
2018-08-19T07:11:15.320Z,67.40
2018-08-19T07:15:23.515Z,66.80
2018-08-19T07:19:31.616Z,66.00
2018-08-19T07:23:39.861Z,65.30
2018-08-19T07:27:47.928Z,64.00
2018-08-19T07:31:56.687Z,63.50
2018-08-19T07:36:04.175Z,62.50
2018-08-19T07:40:12.336Z,61.80
2018-08-19T07:44:20.493Z,60.60
2018-08-19T07:48:28.640Z,59.80
2018-08-19T07:52:36.771Z,59.30
2018-08-19T07:56:44.951Z,59.20
2018-08-19T08:05:01.025Z,58.30
2018-08-19T08:09:09.995Z,57.40
2018-08-19T08:13:18.948Z,56.50
2018-08-19T08:17:27.399Z,56.10
2018-08-19T08:21:35.701Z,55.60
2018-08-19T08:25:43.724Z,55.30
2018-08-19T08:29:51.932Z,55.10
2018-08-19T08:34:00.082Z,54.50
2018-08-19T08:38:11.369Z,54.20
2018-08-19T08:42:19.508Z,52.90
2018-08-19T08:46:27.652Z,53.20
2018-08-19T08:50:35.815Z,52.90
2018-08-19T08:55:15.033Z,51.90
2018-08-19T09:03:31.201Z,51.40
2018-08-19T09:07:40.081Z,51.60
2018-08-19T09:11:48.332Z,51.70
2018-08-19T09:15:56.500Z,51.20
2018-08-19T09:20:06.601Z,51.10
2018-08-19T09:24:14.751Z,50.70
2018-08-19T09:28:22.901Z,50.60
2018-08-19T09:32:31.052Z,50.60
2018-08-19T09:36:39.305Z,50.50
2018-08-19T09:40:47.823Z,50.20
2018-08-19T09:44:56.571Z,50.10
2018-08-19T09:49:04.843Z,49.90
2018-08-19T09:53:13.052Z,49.40
2018-08-19T09:57:21.220Z,49.00
2018-08-19T10:01:38.590Z,48.70
2018-08-19T10:05:46.660Z,48.90
2018-08-19T10:09:54.813Z,47.90
2018-08-19T10:14:04.496Z,47.50
2018-08-19T10:18:12.781Z,47.60
2018-08-19T10:22:20.969Z,47.60
2018-08-19T10:26:29.670Z,46.10
2018-08-19T10:31:00.115Z,46.60
2018-08-19T10:35:13.663Z,45.90
2018-08-19T10:39:21.862Z,44.20
2018-08-19T10:43:30.011Z,44.00
2018-08-19T10:47:38.156Z,43.90
2018-08-19T10:51:46.767Z,44.40
2018-08-19T10:55:57.876Z,43.80
2018-08-19T11:00:11.955Z,42.60
2018-08-19T11:04:20.088Z,43.00
2018-08-19T11:08:28.235Z,42.70
2018-08-19T11:12:36.388Z,42.60
2018-08-19T11:16:44.611Z,41.50
2018-08-19T11:20:55.577Z,40.70
2018-08-19T11:25:03.804Z,40.10
2018-08-19T11:29:11.967Z,39.60
2018-08-19T11:33:31.629Z,39.80
2018-08-19T11:37:40.700Z,38.90
2018-08-19T11:41:48.886Z,39.10
2018-08-19T11:45:57.672Z,39.20
2018-08-19T11:50:05.937Z,38.90
2018-08-19T11:54:15.188Z,39.00
2018-08-19T11:58:35.524Z,38.80
2018-08-19T12:02:43.699Z,38.20
2018-08-19T12:06:51.903Z,38.10
2018-08-19T12:11:16.413Z,38.80
2018-08-19T12:15:23.895Z,39.60
2018-08-19T12:19:32.599Z,39.40
2018-08-19T12:23:40.757Z,39.00
2018-08-19T12:27:48.983Z,38.50
2018-08-19T12:32:05.225Z,37.60
2018-08-19T12:36:13.806Z,37.30
2018-08-19T12:40:22.501Z,37.10
2018-08-19T12:44:31.052Z,36.40
2018-08-19T12:48:39.532Z,36.60
2018-08-19T12:52:48.597Z,36.60
2018-08-19T12:56:57.044Z,37.40
2018-08-19T13:01:05.556Z,37.10
2018-08-19T13:05:15.062Z,37.10
2018-08-19T13:09:27.076Z,35.60
2018-08-19T13:13:34.574Z,34.50
2018-08-19T13:17:42.752Z,35.20
2018-08-19T13:21:50.944Z,34.80
2018-08-19T13:25:59.147Z,34.60
2018-08-19T13:30:07.313Z,34.20
2018-08-19T13:34:15.488Z,32.60
2018-08-19T13:38:34.239Z,32.60
2018-08-19T13:42:42.523Z,32.80
2018-08-19T13:46:50.722Z,32.20
2018-08-19T13:50:59.017Z,32.40
2018-08-19T13:55:09.317Z,32.50
2018-08-19T13:59:17.604Z,33.00
2018-08-19T14:03:25.776Z,34.80
2018-08-19T14:07:34.029Z,34.50
2018-08-19T14:11:42.256Z,35.00
2018-08-19T14:19:58.440Z,35.20
2018-08-19T14:24:06.596Z,34.40
2018-08-19T14:28:14.800Z,34.90
2018-08-19T14:32:32.674Z,36.30
2018-08-19T14:36:40.876Z,36.00
2018-08-19T14:40:48.346Z,36.10
2018-08-19T14:44:57.830Z,36.30
2018-08-19T14:49:06.307Z,36.00
2018-08-19T14:53:14.568Z,35.70
2018-08-19T14:57:22.812Z,36.00
2018-08-19T15:01:30.977Z,35.50
2018-08-19T15:05:39.134Z,35.90
2018-08-19T15:09:50.018Z,35.90
2018-08-19T15:14:02.257Z,35.40
2018-08-19T15:18:10.438Z,35.80
2018-08-19T15:22:18.616Z,35.30
2018-08-19T15:26:26.756Z,35.50
2018-08-19T15:30:34.904Z,35.10
2018-08-19T15:34:43.184Z,35.40
2018-08-19T15:38:51.331Z,35.60
2018-08-19T15:42:59.472Z,34.80
2018-08-19T15:47:07.701Z,35.20
2018-08-19T15:51:15.819Z,36.60
2018-08-19T15:55:24.101Z,36.00
2018-08-19T15:59:33.272Z,35.80
2018-08-19T16:03:41.435Z,36.90
2018-08-19T16:07:49.612Z,37.40
2018-08-19T16:11:57.791Z,37.50
2018-08-19T16:16:09.233Z,36.10
2018-08-19T16:20:17.625Z,35.60
2018-08-19T16:24:26.109Z,36.30
2018-08-19T16:28:34.268Z,36.80
2018-08-19T16:32:41.746Z,35.90
2018-08-19T16:36:49.936Z,36.90
2018-08-19T16:40:57.410Z,37.40
2018-08-19T16:45:05.598Z,37.50
2018-08-19T16:49:13.764Z,35.60
2018-08-19T16:53:21.923Z,37.10
2018-08-19T16:57:30.139Z,37.00
2018-08-19T17:01:38.327Z,37.10
2018-08-19T17:05:46.517Z,37.00
2018-08-19T17:09:54.836Z,37.80
2018-08-19T17:14:02.280Z,37.60
2018-08-19T17:18:10.476Z,36.60
2018-08-19T17:22:18.768Z,35.00
2018-08-19T17:26:27.119Z,33.90
2018-08-19T17:30:35.287Z,33.20
2018-08-19T17:34:42.777Z,31.90
2018-08-19T17:38:57.936Z,32.50
2018-08-19T17:43:06.269Z,33.20
2018-08-19T17:47:14.435Z,32.80
2018-08-19T17:51:35.139Z,33.40
2018-08-19T17:55:43.288Z,33.80
2018-08-19T17:59:51.486Z,35.90
2018-08-19T18:03:59.616Z,38.40
2018-08-19T18:08:07.764Z,40.50
2018-08-19T18:12:15.914Z,42.20
2018-08-19T18:16:24.080Z,43.60
2018-08-19T18:20:35.620Z,45.00
2018-08-19T18:24:50.052Z,46.10
2018-08-19T18:28:58.252Z,47.10
2018-08-19T18:33:06.412Z,47.70
2018-08-19T18:37:14.072Z,48.30
2018-08-19T18:41:29.982Z,49.20
2018-08-19T18:45:38.203Z,50.10
2018-08-19T18:49:46.366Z,51.00
2018-08-19T18:53:54.650Z,51.80
2018-08-19T18:58:07.781Z,52.40
2018-08-19T19:02:15.925Z,53.10
2018-08-19T19:06:24.127Z,53.90
2018-08-19T19:10:32.337Z,54.40
2018-08-19T19:18:48.499Z,55.80
2018-08-19T19:23:02.057Z,56.30
2018-08-19T19:27:10.907Z,57.00
2018-08-19T19:31:20.087Z,57.60
2018-08-19T19:35:28.798Z,57.90
2018-08-19T19:39:36.964Z,58.30
2018-08-19T19:43:45.254Z,58.80
2018-08-19T19:47:53.411Z,59.40
2018-08-19T19:52:02.977Z,59.80
2018-08-19T19:56:14.135Z,60.50
2018-08-19T20:00:22.363Z,61.40
2018-08-19T20:04:33.255Z,62.30
2018-08-19T20:08:41.393Z,62.90
2018-08-19T20:12:49.720Z,63.50
2018-08-19T20:16:57.932Z,63.80
2018-08-19T20:21:10.565Z,64.00
2018-08-19T20:25:18.809Z,64.80
2018-08-19T20:29:26.952Z,65.00
2018-08-19T20:33:35.158Z,65.60
2018-08-19T20:37:43.491Z,66.00
2018-08-19T20:41:51.636Z,66.60
2018-08-19T20:45:59.906Z,67.40
2018-08-19T20:50:08.132Z,68.30
2018-08-19T20:54:16.219Z,69.20
2018-08-19T20:58:24.375Z,69.90
2018-08-19T21:02:32.544Z,70.20
2018-08-19T21:06:40.851Z,70.80
2018-08-19T21:10:49.728Z,71.00
2018-08-19T21:14:58.024Z,71.60
2018-08-19T21:19:06.184Z,72.70
2018-08-19T21:27:22.318Z,73.80
2018-08-19T21:31:30.996Z,74.20
2018-08-19T21:35:44.691Z,74.30
2018-08-19T21:39:52.848Z,74.80
2018-08-19T21:44:01.019Z,75.10
2018-08-19T21:48:12.682Z,75.50
2018-08-19T21:52:20.838Z,75.80
2018-08-19T21:56:28.982Z,76.00
2018-08-19T22:00:41.579Z,76.30
2018-08-19T22:04:49.727Z,76.90
2018-08-19T22:08:57.874Z,77.50
2018-08-19T22:13:06.040Z,77.70
2018-08-19T22:17:14.202Z,77.90
2018-08-19T22:21:23.723Z,78.00
2018-08-19T22:25:31.884Z,78.30
2018-08-19T22:29:40.025Z,78.80
2018-08-19T22:33:54.282Z,79.70
2018-08-19T22:38:07.021Z,80.20
2018-08-19T22:42:15.207Z,81.10
2018-08-19T22:46:23.733Z,81.30
2018-08-19T22:50:31.884Z,81.80
2018-08-19T22:54:40.034Z,82.00
2018-08-19T22:58:48.192Z,82.50
2018-08-19T23:02:56.459Z,82.70
2018-08-19T23:07:04.628Z,83.00
2018-08-19T23:11:12.784Z,83.30
2018-08-19T23:15:36.548Z,83.70
2018-08-19T23:19:44.683Z,84.10
2018-08-19T23:23:52.838Z,84.30
2018-08-19T23:28:00.996Z,84.60
2018-08-19T23:32:09.149Z,85.10
2018-08-19T23:36:17.305Z,85.20
2018-08-19T23:40:25.481Z,85.60
2018-08-19T23:44:33.645Z,86.10
2018-08-19T23:48:41.794Z,86.00
2018-08-19T23:52:49.956Z,86.00
2018-08-19T23:56:58.124Z,86.60
